sensor_id;sensor_type;location;lat;lon;timestamp;temperature;humidity
25450;DHT22;13371;52.080;5.624;2024-02-21T00:02:08;11.80;99.90
25450;DHT22;13371;52.080;5.624;2024-02-21T00:04:34;11.80;99.90
25450;DHT22;13371;52.080;5.624;2024-02-21T00:07:00;11.60;99.90
25450;DHT22;13371;52.080;5.624;2024-02-21T00:09:25;11.80;99.90
25450;DHT22;13371;52.080;5.624;2024-02-21T00:11:51;11.80;99.90
25450;DHT22;13371;52.080;5.624;2024-02-21T00:14:16;11.90;99.90
25450;DHT22;13371;52.080;5.624;2024-02-21T00:16:42;11.80;99.90
25450;DHT22;13371;52.080;5.624;2024-02-21T00:19:07;11.90;99.90
25450;DHT22;13371;52.080;5.624;2024-02-21T00:21:33;11.70;99.90
25450;DHT22;13371;52.080;5.624;2024-02-21T00:23:58;11.50;99.90
25450;DHT22;13371;52.080;5.624;2024-02-21T00:26:24;11.40;99.90
25450;DHT22;13371;52.080;5.624;2024-02-21T00:28:51;11.40;99.90
25450;DHT22;13371;52.080;5.624;2024-02-21T00:31:17;11.50;99.90
25450;DHT22;13371;52.080;5.624;2024-02-21T00:33:45;11.70;99.90
25450;DHT22;13371;52.080;5.624;2024-02-21T00:36:11;11.80;99.90
25450;DHT22;13371;52.080;5.624;2024-02-21T00:38:36;11.70;99.90
25450;DHT22;13371;52.080;5.624;2024-02-21T00:41:02;11.50;99.90
25450;DHT22;13371;52.080;5.624;2024-02-21T00:43:27;11.50;99.90
25450;DHT22;13371;52.080;5.624;2024-02-21T00:45:53;11.30;99.90
25450;DHT22;13371;52.080;5.624;2024-02-21T00:48:18;11.50;99.90
25450;DHT22;13371;52.080;5.624;2024-02-21T00:50:44;11.60;99.90
25450;DHT22;13371;52.080;5.624;2024-02-21T00:53:09;11.60;99.90
25450;DHT22;13371;52.080;5.624;2024-02-21T00:55:35;11.60;99.90
25450;DHT22;13371;52.080;5.624;2024-02-21T00:58:01;11.90;99.90
25450;DHT22;13371;52.080;5.624;2024-02-21T01:00:26;12.00;99.90
25450;DHT22;13371;52.080;5.624;2024-02-21T01:02:52;12.00;99.90
25450;DHT22;13371;52.080;5.624;2024-02-21T01:05:17;12.00;99.90
25450;DHT22;13371;52.080;5.624;2024-02-21T01:07:43;11.90;99.90
25450;DHT22;13371;52.080;5.624;2024-02-21T01:10:09;11.90;99.90
25450;DHT22;13371;52.080;5.624;2024-02-21T01:12:34;11.90;99.90
25450;DHT22;13371;52.080;5.624;2024-02-21T01:15:00;12.00;99.90
25450;DHT22;13371;52.080;5.624;2024-02-21T01:17:25;12.10;99.90
25450;DHT22;13371;52.080;5.624;2024-02-21T01:19:51;12.20;99.90
25450;DHT22;13371;52.080;5.624;2024-02-21T01:22:17;12.30;99.90
25450;DHT22;13371;52.080;5.624;2024-02-21T01:24:43;12.20;99.90
25450;DHT22;13371;52.080;5.624;2024-02-21T01:27:08;12.20;99.90
25450;DHT22;13371;52.080;5.624;2024-02-21T01:29:34;12.00;99.90
25450;DHT22;13371;52.080;5.624;2024-02-21T01:32:00;12.00;99.90
25450;DHT22;13371;52.080;5.624;2024-02-21T01:34:25;11.80;99.90
25450;DHT22;13371;52.080;5.624;2024-02-21T01:36:51;11.70;99.90
25450;DHT22;13371;52.080;5.624;2024-02-21T01:39:17;11.70;99.90
25450;DHT22;13371;52.080;5.624;2024-02-21T01:41:42;11.50;99.90
25450;DHT22;13371;52.080;5.624;2024-02-21T01:44:08;11.80;99.90
25450;DHT22;13371;52.080;5.624;2024-02-21T01:46:34;12.00;99.90
25450;DHT22;13371;52.080;5.624;2024-02-21T01:49:00;11.70;99.90
25450;DHT22;13371;52.080;5.624;2024-02-21T01:51:26;11.80;99.90
25450;DHT22;13371;52.080;5.624;2024-02-21T01:53:53;11.80;99.90
25450;DHT22;13371;52.080;5.624;2024-02-21T01:56:20;11.80;99.90
25450;DHT22;13371;52.080;5.624;2024-02-21T01:58:47;12.00;99.90
25450;DHT22;13371;52.080;5.624;2024-02-21T02:01:13;11.90;99.90
25450;DHT22;13371;52.080;5.624;2024-02-21T02:03:39;11.80;99.90
25450;DHT22;13371;52.080;5.624;2024-02-21T02:06:05;11.60;99.90
25450;DHT22;13371;52.080;5.624;2024-02-21T02:08:32;11.70;99.90
25450;DHT22;13371;52.080;5.624;2024-02-21T02:10:59;11.50;99.90
25450;DHT22;13371;52.080;5.624;2024-02-21T02:13:25;11.60;99.90
25450;DHT22;13371;52.080;5.624;2024-02-21T02:15:50;11.40;99.90
25450;DHT22;13371;52.080;5.624;2024-02-21T02:18:18;11.70;99.90
25450;DHT22;13371;52.080;5.624;2024-02-21T02:20:44;11.60;99.90
25450;DHT22;13371;52.080;5.624;2024-02-21T02:23:29;11.70;99.90
25450;DHT22;13371;52.080;5.624;2024-02-21T02:25:55;11.50;99.90
25450;DHT22;13371;52.080;5.624;2024-02-21T02:28:21;11.50;99.90
25450;DHT22;13371;52.080;5.624;2024-02-21T02:30:48;11.80;99.90
25450;DHT22;13371;52.080;5.624;2024-02-21T02:33:13;11.70;99.90
25450;DHT22;13371;52.080;5.624;2024-02-21T02:35:39;11.80;99.90
25450;DHT22;13371;52.080;5.624;2024-02-21T02:38:05;11.80;99.90
25450;DHT22;13371;52.080;5.624;2024-02-21T02:40:33;11.80;99.90
25450;DHT22;13371;52.080;5.624;2024-02-21T02:42:59;11.80;99.90
25450;DHT22;13371;52.080;5.624;2024-02-21T02:45:25;11.50;99.90
25450;DHT22;13371;52.080;5.624;2024-02-21T02:47:52;11.40;99.90
25450;DHT22;13371;52.080;5.624;2024-02-21T02:50:19;11.30;99.90
25450;DHT22;13371;52.080;5.624;2024-02-21T02:52:45;11.40;99.90
25450;DHT22;13371;52.080;5.624;2024-02-21T02:55:11;11.60;99.90
25450;DHT22;13371;52.080;5.624;2024-02-21T02:57:36;11.70;99.90
25450;DHT22;13371;52.080;5.624;2024-02-21T03:00:03;11.70;99.90
25450;DHT22;13371;52.080;5.624;2024-02-21T03:02:29;11.50;99.90
25450;DHT22;13371;52.080;5.624;2024-02-21T03:04:55;11.50;99.90
25450;DHT22;13371;52.080;5.624;2024-02-21T03:07:20;11.60;99.90
25450;DHT22;13371;52.080;5.624;2024-02-21T03:09:46;11.70;99.90
25450;DHT22;13371;52.080;5.624;2024-02-21T03:12:12;11.80;99.90
25450;DHT22;13371;52.080;5.624;2024-02-21T03:14:37;11.60;99.90
25450;DHT22;13371;52.080;5.624;2024-02-21T03:17:03;11.40;99.90
25450;DHT22;13371;52.080;5.624;2024-02-21T03:19:30;11.40;99.90
25450;DHT22;13371;52.080;5.624;2024-02-21T03:21:55;11.60;99.90
25450;DHT22;13371;52.080;5.624;2024-02-21T03:24:21;11.60;99.90
25450;DHT22;13371;52.080;5.624;2024-02-21T03:26:47;11.60;99.90
25450;DHT22;13371;52.080;5.624;2024-02-21T03:29:15;11.60;99.90
25450;DHT22;13371;52.080;5.624;2024-02-21T03:31:41;11.30;99.90
25450;DHT22;13371;52.080;5.624;2024-02-21T03:34:07;11.50;99.90
25450;DHT22;13371;52.080;5.624;2024-02-21T03:36:32;11.20;99.90
25450;DHT22;13371;52.080;5.624;2024-02-21T03:38:58;11.20;99.90
25450;DHT22;13371;52.080;5.624;2024-02-21T03:41:23;11.40;99.90
25450;DHT22;13371;52.080;5.624;2024-02-21T03:43:49;11.60;99.90
25450;DHT22;13371;52.080;5.624;2024-02-21T03:46:15;11.60;99.90
25450;DHT22;13371;52.080;5.624;2024-02-21T03:48:40;11.60;99.90
25450;DHT22;13371;52.080;5.624;2024-02-21T03:51:06;11.60;99.90
25450;DHT22;13371;52.080;5.624;2024-02-21T03:53:32;11.60;99.90
25450;DHT22;13371;52.080;5.624;2024-02-21T03:56:00;11.60;99.90
25450;DHT22;13371;52.080;5.624;2024-02-21T03:58:28;11.50;99.90
25450;DHT22;13371;52.080;5.624;2024-02-21T04:00:54;11.80;99.90
25450;DHT22;13371;52.080;5.624;2024-02-21T04:03:19;11.70;99.90
25450;DHT22;13371;52.080;5.624;2024-02-21T04:05:45;11.50;99.90
25450;DHT22;13371;52.080;5.624;2024-02-21T04:08:11;11.70;99.90
25450;DHT22;13371;52.080;5.624;2024-02-21T04:10:36;11.50;99.90
25450;DHT22;13371;52.080;5.624;2024-02-21T04:13:03;11.50;99.90
25450;DHT22;13371;52.080;5.624;2024-02-21T04:15:29;11.60;99.90
25450;DHT22;13371;52.080;5.624;2024-02-21T04:17:54;11.70;99.90
25450;DHT22;13371;52.080;5.624;2024-02-21T04:20:20;11.70;99.90
25450;DHT22;13371;52.080;5.624;2024-02-21T04:22:46;11.70;99.90
25450;DHT22;13371;52.080;5.624;2024-02-21T04:25:12;11.70;99.90
25450;DHT22;13371;52.080;5.624;2024-02-21T04:27:38;11.50;99.90
25450;DHT22;13371;52.080;5.624;2024-02-21T04:30:05;11.20;99.90
25450;DHT22;13371;52.080;5.624;2024-02-21T04:32:30;11.50;99.90
25450;DHT22;13371;52.080;5.624;2024-02-21T04:34:56;11.50;99.90
25450;DHT22;13371;52.080;5.624;2024-02-21T04:37:21;11.50;99.90
25450;DHT22;13371;52.080;5.624;2024-02-21T04:39:48;11.60;99.90
25450;DHT22;13371;52.080;5.624;2024-02-21T04:42:14;11.50;99.90
25450;DHT22;13371;52.080;5.624;2024-02-21T04:44:40;11.60;99.90
25450;DHT22;13371;52.080;5.624;2024-02-21T04:47:07;11.50;99.90
25450;DHT22;13371;52.080;5.624;2024-02-21T04:49:33;11.10;99.90
25450;DHT22;13371;52.080;5.624;2024-02-21T04:51:58;11.20;99.90
25450;DHT22;13371;52.080;5.624;2024-02-21T04:54:24;11.20;99.90
25450;DHT22;13371;52.080;5.624;2024-02-21T04:56:50;11.10;99.90
25450;DHT22;13371;52.080;5.624;2024-02-21T04:59:16;11.30;99.90
25450;DHT22;13371;52.080;5.624;2024-02-21T05:01:42;11.10;99.90
25450;DHT22;13371;52.080;5.624;2024-02-21T05:04:08;11.20;99.90
25450;DHT22;13371;52.080;5.624;2024-02-21T05:06:40;11.50;99.90
25450;DHT22;13371;52.080;5.624;2024-02-21T05:09:06;11.50;99.90
25450;DHT22;13371;52.080;5.624;2024-02-21T05:11:32;11.70;99.90
25450;DHT22;13371;52.080;5.624;2024-02-21T05:13:58;11.60;99.90
25450;DHT22;13371;52.080;5.624;2024-02-21T05:16:23;11.80;99.90
25450;DHT22;13371;52.080;5.624;2024-02-21T05:18:49;11.60;99.90
25450;DHT22;13371;52.080;5.624;2024-02-21T05:21:14;11.30;99.90
25450;DHT22;13371;52.080;5.624;2024-02-21T05:23:40;11.30;99.90
25450;DHT22;13371;52.080;5.624;2024-02-21T05:26:06;11.40;99.90
25450;DHT22;13371;52.080;5.624;2024-02-21T05:28:32;11.40;99.90
25450;DHT22;13371;52.080;5.624;2024-02-21T05:30:58;11.50;99.90
25450;DHT22;13371;52.080;5.624;2024-02-21T05:33:24;11.40;99.90
25450;DHT22;13371;52.080;5.624;2024-02-21T05:35:50;11.40;99.90
25450;DHT22;13371;52.080;5.624;2024-02-21T05:38:16;11.30;99.90
25450;DHT22;13371;52.080;5.624;2024-02-21T05:40:42;11.40;99.90
25450;DHT22;13371;52.080;5.624;2024-02-21T05:43:08;11.40;99.90
25450;DHT22;13371;52.080;5.624;2024-02-21T05:45:34;11.30;99.90
25450;DHT22;13371;52.080;5.624;2024-02-21T05:48:00;11.30;99.90
25450;DHT22;13371;52.080;5.624;2024-02-21T05:50:26;11.50;99.90
25450;DHT22;13371;52.080;5.624;2024-02-21T05:52:54;11.60;99.90
25450;DHT22;13371;52.080;5.624;2024-02-21T05:55:21;11.70;99.90
25450;DHT22;13371;52.080;5.624;2024-02-21T05:57:46;11.90;99.90
25450;DHT22;13371;52.080;5.624;2024-02-21T06:00:13;11.60;99.90
25450;DHT22;13371;52.080;5.624;2024-02-21T06:02:39;11.70;99.90
25450;DHT22;13371;52.080;5.624;2024-02-21T06:05:05;11.70;99.90
25450;DHT22;13371;52.080;5.624;2024-02-21T06:07:33;11.50;99.90
25450;DHT22;13371;52.080;5.624;2024-02-21T06:09:59;11.40;99.90
25450;DHT22;13371;52.080;5.624;2024-02-21T06:12:25;11.20;99.90
25450;DHT22;13371;52.080;5.624;2024-02-21T06:14:50;11.10;99.90
25450;DHT22;13371;52.080;5.624;2024-02-21T06:17:16;11.10;99.90
25450;DHT22;13371;52.080;5.624;2024-02-21T06:19:43;11.10;99.90
25450;DHT22;13371;52.080;5.624;2024-02-21T06:22:08;11.00;99.90
25450;DHT22;13371;52.080;5.624;2024-02-21T06:24:35;10.70;99.90
25450;DHT22;13371;52.080;5.624;2024-02-21T06:27:02;10.70;99.90
25450;DHT22;13371;52.080;5.624;2024-02-21T06:29:27;10.70;99.90
25450;DHT22;13371;52.080;5.624;2024-02-21T06:31:53;10.60;99.90
25450;DHT22;13371;52.080;5.624;2024-02-21T06:34:18;10.70;99.90
25450;DHT22;13371;52.080;5.624;2024-02-21T06:36:45;10.90;99.90
25450;DHT22;13371;52.080;5.624;2024-02-21T06:39:10;11.00;99.90
25450;DHT22;13371;52.080;5.624;2024-02-21T06:41:37;10.90;99.90
25450;DHT22;13371;52.080;5.624;2024-02-21T06:44:03;11.00;99.90
25450;DHT22;13371;52.080;5.624;2024-02-21T06:46:29;11.00;99.90
25450;DHT22;13371;52.080;5.624;2024-02-21T06:48:55;11.20;99.90
25450;DHT22;13371;52.080;5.624;2024-02-21T06:51:22;10.90;99.90
25450;DHT22;13371;52.080;5.624;2024-02-21T06:53:48;10.80;99.90
25450;DHT22;13371;52.080;5.624;2024-02-21T06:56:13;10.90;99.90
25450;DHT22;13371;52.080;5.624;2024-02-21T06:58:39;10.90;99.90
25450;DHT22;13371;52.080;5.624;2024-02-21T07:01:04;10.70;99.90
25450;DHT22;13371;52.080;5.624;2024-02-21T07:03:30;10.60;99.90
25450;DHT22;13371;52.080;5.624;2024-02-21T07:05:55;10.60;99.90
25450;DHT22;13371;52.080;5.624;2024-02-21T07:08:21;10.50;99.90
25450;DHT22;13371;52.080;5.624;2024-02-21T07:10:47;10.70;99.90
25450;DHT22;13371;52.080;5.624;2024-02-21T07:13:12;10.70;99.90
25450;DHT22;13371;52.080;5.624;2024-02-21T07:15:38;10.90;99.90
25450;DHT22;13371;52.080;5.624;2024-02-21T07:18:04;10.90;99.90
25450;DHT22;13371;52.080;5.624;2024-02-21T07:20:30;10.90;99.90
25450;DHT22;13371;52.080;5.624;2024-02-21T07:22:55;10.70;99.90
25450;DHT22;13371;52.080;5.624;2024-02-21T07:25:21;10.70;99.90
25450;DHT22;13371;52.080;5.624;2024-02-21T07:27:46;10.80;99.90
25450;DHT22;13371;52.080;5.624;2024-02-21T07:30:12;11.00;99.90
25450;DHT22;13371;52.080;5.624;2024-02-21T07:32:38;10.90;99.90
25450;DHT22;13371;52.080;5.624;2024-02-21T07:35:05;10.90;99.90
25450;DHT22;13371;52.080;5.624;2024-02-21T07:37:31;10.90;99.90
25450;DHT22;13371;52.080;5.624;2024-02-21T07:39:56;11.10;99.90
25450;DHT22;13371;52.080;5.624;2024-02-21T07:42:22;10.80;99.90
25450;DHT22;13371;52.080;5.624;2024-02-21T07:44:47;10.80;99.90
25450;DHT22;13371;52.080;5.624;2024-02-21T07:47:13;10.90;99.90
25450;DHT22;13371;52.080;5.624;2024-02-21T07:49:44;11.00;99.90
25450;DHT22;13371;52.080;5.624;2024-02-21T07:52:10;11.40;99.90
25450;DHT22;13371;52.080;5.624;2024-02-21T07:54:36;11.40;99.90
25450;DHT22;13371;52.080;5.624;2024-02-21T07:57:02;11.50;99.90
25450;DHT22;13371;52.080;5.624;2024-02-21T07:59:30;11.60;99.90
25450;DHT22;13371;52.080;5.624;2024-02-21T08:01:56;11.50;99.90
25450;DHT22;13371;52.080;5.624;2024-02-21T08:04:23;11.40;99.90
25450;DHT22;13371;52.080;5.624;2024-02-21T08:06:52;11.30;99.90
25450;DHT22;13371;52.080;5.624;2024-02-21T08:09:18;11.10;99.90
25450;DHT22;13371;52.080;5.624;2024-02-21T08:11:44;11.20;99.90
25450;DHT22;13371;52.080;5.624;2024-02-21T08:14:10;11.30;99.90
25450;DHT22;13371;52.080;5.624;2024-02-21T08:16:35;11.10;99.90
25450;DHT22;13371;52.080;5.624;2024-02-21T08:19:01;11.00;99.90
25450;DHT22;13371;52.080;5.624;2024-02-21T08:21:29;10.90;99.90
25450;DHT22;13371;52.080;5.624;2024-02-21T08:23:55;10.80;99.90
25450;DHT22;13371;52.080;5.624;2024-02-21T08:26:20;10.70;99.90
25450;DHT22;13371;52.080;5.624;2024-02-21T08:28:46;10.60;99.90
25450;DHT22;13371;52.080;5.624;2024-02-21T08:31:18;10.70;99.90
25450;DHT22;13371;52.080;5.624;2024-02-21T08:33:44;11.00;99.90
25450;DHT22;13371;52.080;5.624;2024-02-21T08:36:16;11.10;99.90
25450;DHT22;13371;52.080;5.624;2024-02-21T08:38:42;11.10;99.90
25450;DHT22;13371;52.080;5.624;2024-02-21T08:41:07;10.70;99.90
25450;DHT22;13371;52.080;5.624;2024-02-21T08:43:33;10.80;99.90
25450;DHT22;13371;52.080;5.624;2024-02-21T08:46:00;10.70;99.90
25450;DHT22;13371;52.080;5.624;2024-02-21T08:48:25;10.60;99.90
25450;DHT22;13371;52.080;5.624;2024-02-21T08:50:51;10.80;99.90
25450;DHT22;13371;52.080;5.624;2024-02-21T08:53:16;10.70;99.90
25450;DHT22;13371;52.080;5.624;2024-02-21T08:55:42;10.80;99.90
25450;DHT22;13371;52.080;5.624;2024-02-21T08:58:09;10.80;99.90
25450;DHT22;13371;52.080;5.624;2024-02-21T09:00:35;10.70;99.90
25450;DHT22;13371;52.080;5.624;2024-02-21T09:03:00;10.70;99.90
25450;DHT22;13371;52.080;5.624;2024-02-21T09:05:26;10.80;99.90
25450;DHT22;13371;52.080;5.624;2024-02-21T09:07:52;11.00;99.90
25450;DHT22;13371;52.080;5.624;2024-02-21T09:10:17;11.10;99.90
25450;DHT22;13371;52.080;5.624;2024-02-21T09:12:43;11.30;99.90
25450;DHT22;13371;52.080;5.624;2024-02-21T09:15:09;11.10;99.90
25450;DHT22;13371;52.080;5.624;2024-02-21T09:17:35;11.00;99.90
25450;DHT22;13371;52.080;5.624;2024-02-21T09:20:01;11.00;99.90
25450;DHT22;13371;52.080;5.624;2024-02-21T09:22:29;11.10;99.90
25450;DHT22;13371;52.080;5.624;2024-02-21T09:24:54;11.00;99.90
25450;DHT22;13371;52.080;5.624;2024-02-21T09:27:20;11.10;99.90
25450;DHT22;13371;52.080;5.624;2024-02-21T09:29:46;10.80;99.90
25450;DHT22;13371;52.080;5.624;2024-02-21T09:32:12;11.00;99.90
25450;DHT22;13371;52.080;5.624;2024-02-21T09:34:37;11.20;99.90
25450;DHT22;13371;52.080;5.624;2024-02-21T09:37:03;11.30;99.90
25450;DHT22;13371;52.080;5.624;2024-02-21T09:39:29;11.20;99.90
25450;DHT22;13371;52.080;5.624;2024-02-21T09:42:05;11.10;99.90
25450;DHT22;13371;52.080;5.624;2024-02-21T09:44:37;11.20;99.90
25450;DHT22;13371;52.080;5.624;2024-02-21T09:47:07;11.20;99.90
25450;DHT22;13371;52.080;5.624;2024-02-21T09:49:35;11.40;99.90
25450;DHT22;13371;52.080;5.624;2024-02-21T09:52:07;11.40;99.90
25450;DHT22;13371;52.080;5.624;2024-02-21T09:54:33;11.20;99.90
25450;DHT22;13371;52.080;5.624;2024-02-21T09:57:00;11.10;99.90
25450;DHT22;13371;52.080;5.624;2024-02-21T09:59:28;11.10;99.90
25450;DHT22;13371;52.080;5.624;2024-02-21T10:01:54;11.20;99.90
25450;DHT22;13371;52.080;5.624;2024-02-21T10:04:21;11.40;99.90
25450;DHT22;13371;52.080;5.624;2024-02-21T10:06:47;11.50;99.90
25450;DHT22;13371;52.080;5.624;2024-02-21T10:11:48;11.20;99.90
25450;DHT22;13371;52.080;5.624;2024-02-21T10:14:15;11.30;99.90
25450;DHT22;13371;52.080;5.624;2024-02-21T10:16:41;11.20;99.90
25450;DHT22;13371;52.080;5.624;2024-02-21T10:19:19;11.30;99.90
25450;DHT22;13371;52.080;5.624;2024-02-21T10:21:57;11.20;99.90
25450;DHT22;13371;52.080;5.624;2024-02-21T10:24:27;11.20;99.90
25450;DHT22;13371;52.080;5.624;2024-02-21T10:27:04;11.10;99.90
25450;DHT22;13371;52.080;5.624;2024-02-21T10:29:31;11.00;99.90
25450;DHT22;13371;52.080;5.624;2024-02-21T10:32:10;11.10;99.90
25450;DHT22;13371;52.080;5.624;2024-02-21T10:34:38;11.20;99.90
25450;DHT22;13371;52.080;5.624;2024-02-21T10:37:05;11.30;99.90
25450;DHT22;13371;52.080;5.624;2024-02-21T10:39:39;11.40;99.90
25450;DHT22;13371;52.080;5.624;2024-02-21T10:42:06;11.40;99.90
25450;DHT22;13371;52.080;5.624;2024-02-21T10:44:41;11.50;99.90
25450;DHT22;13371;52.080;5.624;2024-02-21T10:47:11;11.50;99.90
25450;DHT22;13371;52.080;5.624;2024-02-21T10:49:40;11.40;99.90
25450;DHT22;13371;52.080;5.624;2024-02-21T10:55:03;11.30;99.90
25450;DHT22;13371;52.080;5.624;2024-02-21T10:57:31;11.40;99.90
25450;DHT22;13371;52.080;5.624;2024-02-21T10:59:58;11.50;99.90
25450;DHT22;13371;52.080;5.624;2024-02-21T11:02:25;11.60;99.90
25450;DHT22;13371;52.080;5.624;2024-02-21T11:04:52;11.30;99.90
25450;DHT22;13371;52.080;5.624;2024-02-21T11:07:19;11.50;99.90
25450;DHT22;13371;52.080;5.624;2024-02-21T11:09:52;11.20;99.90
25450;DHT22;13371;52.080;5.624;2024-02-21T11:12:22;11.10;99.90
25450;DHT22;13371;52.080;5.624;2024-02-21T11:14:48;11.20;99.90
25450;DHT22;13371;52.080;5.624;2024-02-21T11:17:17;11.30;99.90
25450;DHT22;13371;52.080;5.624;2024-02-21T11:19:43;11.10;99.90
25450;DHT22;13371;52.080;5.624;2024-02-21T11:22:17;11.00;99.90
25450;DHT22;13371;52.080;5.624;2024-02-21T11:24:42;10.90;99.90
25450;DHT22;13371;52.080;5.624;2024-02-21T11:27:16;11.10;99.90
25450;DHT22;13371;52.080;5.624;2024-02-21T11:29:49;11.30;99.90
25450;DHT22;13371;52.080;5.624;2024-02-21T11:32:17;11.10;99.90
25450;DHT22;13371;52.080;5.624;2024-02-21T11:35:19;11.10;99.90
25450;DHT22;13371;52.080;5.624;2024-02-21T11:37:44;10.80;99.90
25450;DHT22;13371;52.080;5.624;2024-02-21T11:40:12;11.00;99.90
25450;DHT22;13371;52.080;5.624;2024-02-21T11:42:38;11.10;99.90
25450;DHT22;13371;52.080;5.624;2024-02-21T11:45:04;10.90;99.90
25450;DHT22;13371;52.080;5.624;2024-02-21T11:47:29;11.10;99.90
25450;DHT22;13371;52.080;5.624;2024-02-21T11:49:55;11.20;99.90
25450;DHT22;13371;52.080;5.624;2024-02-21T11:52:25;11.10;99.90
25450;DHT22;13371;52.080;5.624;2024-02-21T11:54:51;11.10;99.90
25450;DHT22;13371;52.080;5.624;2024-02-21T11:57:22;11.30;99.90
25450;DHT22;13371;52.080;5.624;2024-02-21T11:59:51;11.50;99.90
25450;DHT22;13371;52.080;5.624;2024-02-21T12:02:17;11.40;99.90
25450;DHT22;13371;52.080;5.624;2024-02-21T12:04:44;11.40;99.90
25450;DHT22;13371;52.080;5.624;2024-02-21T12:07:10;11.30;99.90
25450;DHT22;13371;52.080;5.624;2024-02-21T12:09:41;11.50;99.90
25450;DHT22;13371;52.080;5.624;2024-02-21T12:12:07;11.30;99.90
25450;DHT22;13371;52.080;5.624;2024-02-21T12:14:35;11.50;99.90
25450;DHT22;13371;52.080;5.624;2024-02-21T12:17:01;11.50;99.90
25450;DHT22;13371;52.080;5.624;2024-02-21T12:19:30;11.50;99.90
25450;DHT22;13371;52.080;5.624;2024-02-21T12:21:56;11.70;99.90
25450;DHT22;13371;52.080;5.624;2024-02-21T12:24:25;11.80;99.90
25450;DHT22;13371;52.080;5.624;2024-02-21T12:26:54;11.80;99.90
25450;DHT22;13371;52.080;5.624;2024-02-21T12:29:21;12.00;99.90
25450;DHT22;13371;52.080;5.624;2024-02-21T12:31:47;12.10;99.90
25450;DHT22;13371;52.080;5.624;2024-02-21T12:34:13;12.20;99.90
25450;DHT22;13371;52.080;5.624;2024-02-21T12:36:43;12.00;99.90
25450;DHT22;13371;52.080;5.624;2024-02-21T12:39:09;12.20;99.90
25450;DHT22;13371;52.080;5.624;2024-02-21T12:41:36;12.50;99.90
25450;DHT22;13371;52.080;5.624;2024-02-21T12:44:04;12.20;99.90
25450;DHT22;13371;52.080;5.624;2024-02-21T12:46:35;12.20;99.90
25450;DHT22;13371;52.080;5.624;2024-02-21T12:49:01;12.10;99.90
25450;DHT22;13371;52.080;5.624;2024-02-21T12:51:27;12.00;99.90
25450;DHT22;13371;52.080;5.624;2024-02-21T12:53:53;11.80;99.90
25450;DHT22;13371;52.080;5.624;2024-02-21T12:56:18;12.00;99.90
25450;DHT22;13371;52.080;5.624;2024-02-21T12:58:44;12.00;99.90
25450;DHT22;13371;52.080;5.624;2024-02-21T13:01:10;12.00;99.90
25450;DHT22;13371;52.080;5.624;2024-02-21T13:03:35;12.00;99.90
25450;DHT22;13371;52.080;5.624;2024-02-21T13:06:01;12.00;99.90
25450;DHT22;13371;52.080;5.624;2024-02-21T13:08:26;11.80;99.90
25450;DHT22;13371;52.080;5.624;2024-02-21T13:10:52;11.90;99.90
25450;DHT22;13371;52.080;5.624;2024-02-21T13:13:18;11.80;99.90
25450;DHT22;13371;52.080;5.624;2024-02-21T13:15:44;11.90;99.90
25450;DHT22;13371;52.080;5.624;2024-02-21T13:18:09;12.10;99.90
25450;DHT22;13371;52.080;5.624;2024-02-21T13:20:36;12.10;99.90
25450;DHT22;13371;52.080;5.624;2024-02-21T13:23:02;12.10;99.90
25450;DHT22;13371;52.080;5.624;2024-02-21T13:25:27;12.00;99.90
25450;DHT22;13371;52.080;5.624;2024-02-21T13:27:53;12.30;99.90
25450;DHT22;13371;52.080;5.624;2024-02-21T13:30:19;12.10;99.90
25450;DHT22;13371;52.080;5.624;2024-02-21T13:32:45;12.30;99.90
25450;DHT22;13371;52.080;5.624;2024-02-21T13:35:14;12.20;99.90
25450;DHT22;13371;52.080;5.624;2024-02-21T13:37:40;12.00;99.90
25450;DHT22;13371;52.080;5.624;2024-02-21T13:40:07;12.10;99.90
25450;DHT22;13371;52.080;5.624;2024-02-21T13:42:39;12.10;99.90
25450;DHT22;13371;52.080;5.624;2024-02-21T13:45:06;11.90;99.90
25450;DHT22;13371;52.080;5.624;2024-02-21T13:47:32;11.80;99.90
25450;DHT22;13371;52.080;5.624;2024-02-21T13:49:58;12.00;99.90
25450;DHT22;13371;52.080;5.624;2024-02-21T13:52:24;12.00;99.90
25450;DHT22;13371;52.080;5.624;2024-02-21T13:54:52;12.10;99.90
25450;DHT22;13371;52.080;5.624;2024-02-21T13:57:17;12.10;99.90
25450;DHT22;13371;52.080;5.624;2024-02-21T13:59:43;12.10;99.90
25450;DHT22;13371;52.080;5.624;2024-02-21T14:02:09;12.10;99.90
25450;DHT22;13371;52.080;5.624;2024-02-21T14:04:35;12.00;99.90
25450;DHT22;13371;52.080;5.624;2024-02-21T14:07:01;12.10;99.90
25450;DHT22;13371;52.080;5.624;2024-02-21T14:09:27;12.30;99.90
25450;DHT22;13371;52.080;5.624;2024-02-21T14:11:55;12.40;99.90
25450;DHT22;13371;52.080;5.624;2024-02-21T14:14:20;12.20;99.90
25450;DHT22;13371;52.080;5.624;2024-02-21T14:16:46;12.30;99.90
25450;DHT22;13371;52.080;5.624;2024-02-21T14:19:13;12.20;99.90
25450;DHT22;13371;52.080;5.624;2024-02-21T14:21:39;12.20;99.90
25450;DHT22;13371;52.080;5.624;2024-02-21T14:24:05;12.00;99.90
25450;DHT22;13371;52.080;5.624;2024-02-21T14:26:31;12.10;99.90
25450;DHT22;13371;52.080;5.624;2024-02-21T14:28:57;12.10;99.90
25450;DHT22;13371;52.080;5.624;2024-02-21T14:31:23;11.90;99.90
25450;DHT22;13371;52.080;5.624;2024-02-21T14:33:49;11.80;99.90
25450;DHT22;13371;52.080;5.624;2024-02-21T14:36:14;11.90;99.90
25450;DHT22;13371;52.080;5.624;2024-02-21T14:38:43;11.90;99.90
25450;DHT22;13371;52.080;5.624;2024-02-21T14:41:10;11.90;99.90
25450;DHT22;13371;52.080;5.624;2024-02-21T14:43:39;11.90;99.90
25450;DHT22;13371;52.080;5.624;2024-02-21T14:46:05;11.90;99.90
25450;DHT22;13371;52.080;5.624;2024-02-21T14:48:31;11.80;99.90
25450;DHT22;13371;52.080;5.624;2024-02-21T14:50:58;11.80;99.90
25450;DHT22;13371;52.080;5.624;2024-02-21T14:53:24;12.10;99.90
25450;DHT22;13371;52.080;5.624;2024-02-21T14:55:50;12.00;99.90
25450;DHT22;13371;52.080;5.624;2024-02-21T14:58:16;11.90;99.90
25450;DHT22;13371;52.080;5.624;2024-02-21T15:00:43;12.10;99.90
25450;DHT22;13371;52.080;5.624;2024-02-21T15:03:09;12.20;99.90
25450;DHT22;13371;52.080;5.624;2024-02-21T15:05:41;12.20;99.90
25450;DHT22;13371;52.080;5.624;2024-02-21T15:08:06;11.80;99.90
25450;DHT22;13371;52.080;5.624;2024-02-21T15:10:34;11.60;99.90
25450;DHT22;13371;52.080;5.624;2024-02-21T15:13:00;11.60;99.90
25450;DHT22;13371;52.080;5.624;2024-02-21T15:15:26;11.70;99.90
25450;DHT22;13371;52.080;5.624;2024-02-21T15:17:52;11.50;99.90
25450;DHT22;13371;52.080;5.624;2024-02-21T15:20:17;11.50;99.90
25450;DHT22;13371;52.080;5.624;2024-02-21T15:22:43;11.40;99.90
25450;DHT22;13371;52.080;5.624;2024-02-21T15:25:09;11.30;99.90
25450;DHT22;13371;52.080;5.624;2024-02-21T15:27:43;11.30;99.90
25450;DHT22;13371;52.080;5.624;2024-02-21T15:30:10;11.40;99.90
25450;DHT22;13371;52.080;5.624;2024-02-21T15:32:39;11.30;99.90